Stratmoor Hills, Colorado
Current Conditions -  °F | °C
As of 10:56 PM on Thursday 30 Oct 2014 (Local Time) from KCWN Reporting Station
Clear Clear  
Wind Chill: 41°   Ceiling: Unl
Heat Index: 47°   Visibility: 10mi
Dew Point: 22°   Wind: 16mph
Humidity: 36%   Direction: 190°S
Pressure: 30.43"   Gusts: 24mph
Location:  38.7684°N, 104.872°W
Report Text: KCWN 310456Z AUTO 19014G21KT 10SM CLR 09/M06 A3043 RMK AO2 SLP270 T00861056
Loading
Personal Weather Stations






























Interactive Weather Map
Tropical Storm Tracking
New forecast layout! Learn more

10-Day Weather Forecast

Advertisements
Track Severe Weather on mobile